Time;durP1;ratioP1;P1;durP2;ratioP2;P2;SDS_P1;SDS_P2;PMS_P1;PMS_P2;Temp;Humidity;BMP_temperature;BMP_pressure;BME280_temperature;BME280_humidity;BME280_pressure;Samples;Min_cycle;Max_cycle;Signal;HPM_P1;HPM_P2
2022/05/14 05:00:45;;;;;;;4.83;2.27;;;13.00;97.20;;;;;;1734149;28;20190;-68
2022/05/14 05:01:35;;;;;;;3.63;2.42;;;13.00;97.20;;;;;;1733894;28;20239;-68
2022/05/14 05:03:36;;;;;;;2.55;2.28;;;13.00;97.20;;;;;;1734247;28;20418;-68
2022/05/14 05:04:28;;;;;;;5.43;2.40;;;13.00;97.20;;;;;;1734113;28;20202;-68
2022/05/14 05:05:19;;;;;;;4.20;2.22;;;13.00;97.20;;;;;;1734164;28;20677;-68
2022/05/14 05:06:14;;;;;;;4.70;2.55;;;13.00;97.20;;;;;;1734163;28;20563;-68
2022/05/14 05:07:05;;;;;;;2.50;2.30;;;13.10;97.20;;;;;;1733806;28;20241;-68
2022/05/14 05:07:57;;;;;;;3.87;2.50;;;13.10;97.20;;;;;;1733673;28;20203;-68
2022/05/14 05:08:49;;;;;;;3.53;2.38;;;13.10;97.20;;;;;;1733960;28;20648;-68
2022/05/14 05:09:40;;;;;;;4.25;2.80;;;13.10;97.20;;;;;;1733655;28;20291;-68
2022/05/14 05:10:32;;;;;;;3.43;2.20;;;13.20;97.20;;;;;;1734120;28;20199;-68
2022/05/14 05:11:23;;;;;;;2.95;2.22;;;13.20;97.20;;;;;;1734106;28;20307;-68
2022/05/14 05:12:15;;;;;;;2.73;1.97;;;13.30;97.20;;;;;;1734119;28;20287;-68
2022/05/14 05:13:09;;;;;;;8.23;2.10;;;13.30;97.20;;;;;;1734047;28;20470;-68
2022/05/14 05:14:01;;;;;;;3.10;2.20;;;13.30;97.20;;;;;;1733729;28;20199;-68
2022/05/14 05:14:52;;;;;;;4.80;2.58;;;13.40;97.20;;;;;;1734037;28;20231;-69
2022/05/14 05:15:45;;;;;;;5.80;2.27;;;13.40;97.20;;;;;;1733939;28;20675;-68
2022/05/14 05:16:36;;;;;;;3.97;2.20;;;13.40;97.20;;;;;;1733428;28;20374;-68
2022/05/14 05:17:28;;;;;;;3.30;2.07;;;13.50;97.20;;;;;;1733805;28;20196;-69
2022/05/14 05:18:19;;;;;;;2.78;1.90;;;13.50;97.20;;;;;;1733736;28;20442;-69
2022/05/14 05:19:11;;;;;;;3.78;2.30;;;13.50;97.20;;;;;;1734075;28;20208;-68
2022/05/14 05:20:01;;;;;;;4.85;2.20;;;13.50;97.20;;;;;;1734096;28;20211;-69
2022/05/14 05:20:56;;;;;;;2.70;2.23;;;13.60;97.20;;;;;;1733997;28;20203;-69
2022/05/14 05:21:46;;;;;;;2.67;2.08;;;13.60;97.20;;;;;;1734075;28;20673;-68
2022/05/14 05:22:39;;;;;;;2.40;2.20;;;13.60;97.20;;;;;;1733765;28;20551;-69
2022/05/14 05:23:31;;;;;;;4.88;2.30;;;13.60;97.20;;;;;;1733891;28;20192;-69
2022/05/14 05:24:22;;;;;;;4.00;2.60;;;13.60;97.20;;;;;;1734173;28;20200;-69
2022/05/14 05:25:13;;;;;;;3.60;2.33;;;13.70;97.20;;;;;;1733961;28;20455;-68
2022/05/14 05:26:05;;;;;;;3.70;2.33;;;13.70;97.20;;;;;;1734048;28;20208;-68
2022/05/14 05:26:56;;;;;;;2.92;2.15;;;13.70;97.20;;;;;;1733644;28;20220;-67
2022/05/14 05:27:47;;;;;;;3.15;2.63;;;13.70;97.20;;;;;;1733964;28;20200;-68
2022/05/14 05:28:39;;;;;;;2.97;2.30;;;13.80;97.20;;;;;;1734106;28;20200;-68
2022/05/14 05:29:29;;;;;;;4.38;2.40;;;13.80;97.20;;;;;;1734221;28;20584;-68
2022/05/14 05:30:21;;;;;;;2.33;1.83;;;13.80;97.20;;;;;;1734183;28;20581;-68
2022/05/14 05:31:13;;;;;;;5.68;2.20;;;13.80;97.20;;;;;;1734006;28;20242;-68
2022/05/14 05:32:06;;;;;;;5.60;2.50;;;13.90;97.20;;;;;;1733693;28;20204;-69
2022/05/14 05:32:58;;;;;;;2.70;2.00;;;14.00;97.20;;;;;;1733618;28;20204;-69
2022/05/14 05:33:48;;;;;;;5.80;2.30;;;14.00;97.20;;;;;;1733808;28;20238;-69
2022/05/14 05:34:40;;;;;;;3.73;2.27;;;14.00;97.20;;;;;;1734157;28;20652;-68
2022/05/14 05:35:31;;;;;;;4.65;2.25;;;14.10;97.20;;;;;;1733554;28;20242;-68
2022/05/14 05:36:23;;;;;;;3.47;2.33;;;14.10;97.20;;;;;;1733740;28;20203;-69
2022/05/14 05:37:13;;;;;;;3.50;2.03;;;14.10;97.20;;;;;;1733555;28;20486;-69
2022/05/14 05:38:05;;;;;;;2.40;2.20;;;14.20;97.20;;;;;;1733952;28;20214;-68
2022/05/14 05:38:56;;;;;;;2.65;1.92;;;14.20;97.20;;;;;;1734095;28;20451;-69
2022/05/14 05:39:48;;;;;;;2.93;2.13;;;14.20;97.20;;;;;;1732897;28;20200;-70
2022/05/14 05:40:39;;;;;;;3.40;2.40;;;14.20;97.20;;;;;;1730592;28;20443;-70
2022/05/14 05:41:31;;;;;;;2.22;2.00;;;14.20;97.20;;;;;;1733930;28;20232;-69
2022/05/14 05:42:22;;;;;;;2.35;2.15;;;14.30;97.20;;;;;;1727583;28;20224;-68
2022/05/14 05:43:14;;;;;;;3.13;2.05;;;14.30;97.20;;;;;;1728537;28;20204;-70
2022/05/14 05:44:05;;;;;;;2.92;2.10;;;14.30;97.20;;;;;;1728501;28;20236;-69
2022/05/14 05:44:57;;;;;;;3.50;2.42;;;14.30;97.20;;;;;;1728588;28;20205;-70
2022/05/14 05:45:49;;;;;;;4.18;2.10;;;14.40;97.20;;;;;;1729743;28;20212;-70
2022/05/14 05:46:42;;;;;;;2.70;2.28;;;14.40;97.20;;;;;;1734829;28;20224;-69
2022/05/14 05:47:33;;;;;;;2.38;1.95;;;14.50;97.20;;;;;;1735337;28;20298;-69
2022/05/14 05:48:25;;;;;;;4.53;2.27;;;14.50;97.20;;;;;;1735358;28;20202;-69
2022/05/14 05:49:16;;;;;;;2.80;2.30;;;14.50;97.20;;;;;;1735372;28;20619;-69
2022/05/14 05:50:09;;;;;;;2.40;2.03;;;14.60;97.20;;;;;;1735237;28;20203;-69
2022/05/14 05:50:59;;;;;;;8.60;2.90;;;14.60;97.20;;;;;;1735500;28;20232;-70
2022/05/14 05:51:51;;;;;;;3.07;2.00;;;14.60;97.20;;;;;;1735321;28;20203;-70
2022/05/14 05:52:42;;;;;;;4.50;1.85;;;14.60;97.20;;;;;;1735337;28;20231;-71
2022/05/14 05:57:00;;;;;;;2.58;2.05;;;14.80;97.20;;;;;;1734929;28;20349;-68
2022/05/14 05:57:51;;;;;;;2.00;1.90;;;14.80;97.20;;;;;;1734710;28;20211;-69
2022/05/14 05:58:42;;;;;;;5.32;2.58;;;14.90;97.20;;;;;;1732101;28;20273;-69
2022/05/14 05:59:33;;;;;;;2.95;2.20;;;14.90;97.20;;;;;;1733237;28;20707;-69
2022/05/14 06:00:28;;;;;;;3.60;2.30;;;14.90;97.20;;;;;;1735074;28;20578;-69
2022/05/14 06:01:19;;;;;;;5.30;2.08;;;14.90;97.20;;;;;;1735102;28;20581;-68
2022/05/14 06:02:12;;;;;;;5.40;2.23;;;15.00;97.20;;;;;;1735092;28;20580;-68
2022/05/14 06:03:02;;;;;;;2.90;2.00;;;15.00;97.20;;;;;;1734883;28;20199;-68
2022/05/14 06:03:54;;;;;;;3.50;2.10;;;15.00;97.20;;;;;;1735313;28;20200;-71
2022/05/14 06:04:45;;;;;;;3.50;1.88;;;15.00;97.20;;;;;;1735270;28;20459;-70
2022/05/14 06:05:36;;;;;;;3.40;2.40;;;15.10;97.20;;;;;;1735155;28;20213;-71
2022/05/14 06:06:27;;;;;;;3.63;2.00;;;15.10;97.20;;;;;;1734746;28;20226;-71
2022/05/14 06:07:19;;;;;;;2.60;1.60;;;15.10;97.20;;;;;;1734908;28;20203;-71
2022/05/14 06:08:12;;;;;;;1.80;1.70;;;15.20;97.20;;;;;;1734888;28;20613;-70
2022/05/14 06:09:04;;;;;;;3.55;2.00;;;15.20;97.20;;;;;;1733370;28;20188;-69
2022/05/14 06:09:55;;;;;;;1.92;1.73;;;15.20;97.20;;;;;;1734995;28;20203;-70
2022/05/14 06:10:47;;;;;;;3.42;2.30;;;15.30;97.20;;;;;;1734682;28;20196;-70
2022/05/14 06:11:38;;;;;;;6.20;1.83;;;15.30;97.20;;;;;;1734837;28;20199;-69
2022/05/14 06:12:30;;;;;;;2.80;1.93;;;15.30;97.20;;;;;;1734775;28;20279;-70
2022/05/14 06:13:21;;;;;;;4.80;2.25;;;15.40;97.20;;;;;;1735164;28;20257;-69
2022/05/14 06:14:14;;;;;;;3.13;1.97;;;15.40;97.20;;;;;;1735092;28;20659;-69
2022/05/14 06:15:06;;;;;;;3.25;2.15;;;15.50;97.20;;;;;;1735169;28;20746;-69
2022/05/14 06:15:59;;;;;;;3.47;1.92;;;15.50;97.20;;;;;;1735016;28;20196;-69
2022/05/14 06:16:51;;;;;;;3.70;2.17;;;15.60;97.20;;;;;;1734452;28;20254;-70
2022/05/14 06:17:44;;;;;;;4.45;2.00;;;15.60;97.20;;;;;;1735021;28;20235;-70
2022/05/14 06:18:35;;;;;;;2.60;1.83;;;15.60;97.20;;;;;;1735029;28;20200;-69
2022/05/14 06:19:26;;;;;;;4.10;1.60;;;15.70;97.20;;;;;;1735079;28;20204;-69
2022/05/14 06:20:18;;;;;;;3.17;1.60;;;15.70;97.20;;;;;;1734727;28;20466;-70
2022/05/14 06:21:10;;;;;;;2.65;2.00;;;15.70;97.20;;;;;;1734889;28;20200;-69
2022/05/14 06:22:02;;;;;;;4.15;2.33;;;15.80;97.20;;;;;;1734791;28;20204;-70
2022/05/14 06:22:54;;;;;;;2.15;1.77;;;15.80;97.20;;;;;;1734970;28;20200;-70
2022/05/14 06:23:45;;;;;;;2.38;1.50;;;15.80;97.20;;;;;;1735092;28;20208;-69
2022/05/14 06:24:37;;;;;;;2.07;1.80;;;15.90;97.20;;;;;;1735040;28;20196;-70
2022/05/14 06:25:28;;;;;;;2.30;1.58;;;15.90;97.20;;;;;;1735025;28;20481;-69
2022/05/14 06:26:20;;;;;;;3.50;1.70;;;15.90;97.20;;;;;;1734932;28;20192;-69
2022/05/14 06:27:10;;;;;;;4.28;2.80;;;16.00;97.20;;;;;;1734677;28;20238;-69
2022/05/14 06:28:02;;;;;;;3.77;2.90;;;16.00;97.20;;;;;;1734974;28;20203;-69
2022/05/14 06:28:53;;;;;;;2.40;1.77;;;16.00;97.20;;;;;;1734956;28;20243;-69
2022/05/14 06:29:46;;;;;;;3.73;1.70;;;16.00;97.20;;;;;;1735122;28;20200;-70
2022/05/14 06:30:41;;;;;;;2.33;1.67;;;16.10;97.20;;;;;;1734134;28;20235;-70
2022/05/14 06:31:33;;;;;;;3.28;1.88;;;16.10;97.20;;;;;;1731333;28;20191;-69
2022/05/14 06:32:23;;;;;;;3.35;2.10;;;16.10;97.20;;;;;;1735176;28;20227;-69
2022/05/14 06:33:18;;;;;;;3.83;2.20;;;16.10;97.20;;;;;;1728854;28;20196;-69
2022/05/14 06:34:09;;;;;;;4.05;2.05;;;16.10;97.20;;;;;;1728125;28;20201;-70
2022/05/14 06:35:00;;;;;;;2.33;1.80;;;16.20;97.20;;;;;;1728257;28;20196;-70
2022/05/14 06:35:51;;;;;;;2.88;2.00;;;16.20;97.20;;;;;;1728202;28;20209;-71
2022/05/14 06:36:43;;;;;;;2.10;1.70;;;16.20;97.20;;;;;;1728966;28;20266;-71
2022/05/14 06:37:34;;;;;;;3.58;1.65;;;16.20;97.20;;;;;;1730442;28;20201;-72
2022/05/14 06:38:27;;;;;;;1.80;1.53;;;16.20;97.20;;;;;;1734961;28;20192;-72
2022/05/14 06:39:18;;;;;;;2.80;1.65;;;16.30;97.20;;;;;;1731350;28;20451;-72
2022/05/14 06:40:11;;;;;;;3.60;1.80;;;16.30;97.20;;;;;;1728205;28;20204;-70
2022/05/14 06:41:04;;;;;;;2.63;1.85;;;16.30;97.20;;;;;;1734437;28;20694;-69
2022/05/14 06:41:58;;;;;;;3.28;1.70;;;16.40;97.20;;;;;;1734932;28;20638;-69
2022/05/14 06:42:48;;;;;;;2.83;1.63;;;16.40;97.20;;;;;;1734223;28;20623;-70
2022/05/14 06:43:41;;;;;;;4.73;1.43;;;16.50;97.20;;;;;;1735020;28;20204;-70
2022/05/14 06:44:32;;;;;;;3.63;1.70;;;16.50;97.20;;;;;;1734855;28;20203;-70
2022/05/14 06:45:24;;;;;;;2.30;1.30;;;16.50;97.20;;;;;;1734445;28;20188;-70
2022/05/14 06:46:15;;;;;;;3.00;1.55;;;16.60;97.20;;;;;;1734853;28;20207;-69
2022/05/14 06:47:07;;;;;;;2.87;1.80;;;16.60;97.20;;;;;;1734702;28;20206;-70
2022/05/14 06:47:58;;;;;;;4.03;1.80;;;16.60;97.20;;;;;;1734862;28;20220;-70
2022/05/14 06:48:51;;;;;;;2.37;1.90;;;16.70;97.20;;;;;;1734965;28;20218;-69
2022/05/14 06:49:42;;;;;;;2.15;1.70;;;16.70;97.20;;;;;;1734892;28;20231;-69
2022/05/14 06:50:38;;;;;;;5.03;1.63;;;16.70;97.20;;;;;;1734309;28;20200;-70
2022/05/14 06:51:31;;;;;;;3.00;1.45;;;16.70;97.20;;;;;;1734952;28;20200;-69
2022/05/14 06:52:23;;;;;;;2.92;1.40;;;16.70;97.20;;;;;;1734903;28;20258;-69
2022/05/14 06:53:15;;;;;;;3.40;1.40;;;16.70;97.20;;;;;;1734808;28;20200;-70
2022/05/14 06:54:09;;;;;;;2.72;1.85;;;16.80;97.20;;;;;;1734276;28;20196;-69
2022/05/14 06:55:01;;;;;;;2.15;1.40;;;16.80;97.20;;;;;;1734634;28;20215;-70
2022/05/14 06:55:55;;;;;;;2.55;1.30;;;16.80;97.20;;;;;;1734855;28;20659;-70
2022/05/14 06:56:47;;;;;;;1.70;1.33;;;16.80;97.20;;;;;;1734466;28;20262;-70
2022/05/14 06:57:39;;;;;;;2.05;1.60;;;16.90;97.20;;;;;;1734820;28;20219;-70
2022/05/14 06:58:33;;;;;;;3.85;1.40;;;16.90;97.20;;;;;;1734814;28;20196;-70
2022/05/14 06:59:26;;;;;;;2.17;1.33;;;16.90;97.20;;;;;;1734850;28;20204;-70
2022/05/14 07:00:18;;;;;;;3.10;1.25;;;16.90;97.20;;;;;;1734701;28;20298;-70
2022/05/14 07:01:11;;;;;;;2.47;1.58;;;16.90;97.20;;;;;;1734746;28;20196;-70
2022/05/14 07:02:02;;;;;;;2.42;1.17;;;17.00;97.20;;;;;;1734760;28;20256;-70
2022/05/14 07:06:37;;;;;;;2.90;1.50;;;17.00;97.20;;;;;;1734750;28;20269;-70
2022/05/14 07:06:38;;;;;;;2.17;1.33;;;17.10;97.20;;;;;;1734787;28;20291;-70
2022/05/14 07:07:29;;;;;;;2.30;1.20;;;17.20;97.20;;;;;;1734730;28;20196;-69
2022/05/14 07:08:20;;;;;;;2.90;1.63;;;17.20;97.20;;;;;;1734627;28;20196;-70
2022/05/14 07:09:15;;;;;;;2.85;1.30;;;17.20;97.20;;;;;;1734826;28;20957;-70
2022/05/14 07:10:07;;;;;;;4.00;1.27;;;17.30;97.20;;;;;;1734692;28;20642;-70
2022/05/14 07:10:58;;;;;;;1.00;0.90;;;17.30;97.20;;;;;;1734813;28;20204;-70
2022/05/14 07:11:53;;;;;;;1.60;1.47;;;17.40;97.20;;;;;;1734791;28;20231;-70
2022/05/14 07:12:43;;;;;;;2.28;1.10;;;17.40;97.20;;;;;;1734820;28;20208;-70
2022/05/14 07:13:35;;;;;;;2.97;1.30;;;17.40;97.20;;;;;;1734738;28;20196;-70
2022/05/14 07:14:28;;;;;;;2.28;1.50;;;17.50;97.20;;;;;;1734639;28;20285;-70
2022/05/14 07:15:19;;;;;;;2.95;1.52;;;17.50;97.20;;;;;;1734745;28;20286;-70
2022/05/14 07:16:11;;;;;;;2.20;1.47;;;17.50;97.20;;;;;;1734630;28;20200;-70
2022/05/14 07:17:03;;;;;;;6.53;2.30;;;17.60;97.20;;;;;;1734293;28;20211;-70
2022/05/14 07:17:54;;;;;;;3.40;1.25;;;17.60;97.20;;;;;;1734379;28;20250;-70
2022/05/14 07:18:46;;;;;;;3.33;1.33;;;17.70;97.20;;;;;;1734503;28;20622;-70
2022/05/14 07:19:39;;;;;;;2.10;1.20;;;17.70;97.20;;;;;;1734661;28;20211;-69
2022/05/14 07:20:31;;;;;;;3.35;1.50;;;17.80;97.20;;;;;;1734719;28;20306;-70
2022/05/14 07:21:22;;;;;;;3.25;1.55;;;17.80;97.20;;;;;;1734640;28;20200;-70
2022/05/14 07:22:14;;;;;;;2.50;1.50;;;17.90;97.20;;;;;;1734537;28;20691;-70
2022/05/14 07:23:05;;;;;;;1.55;1.13;;;17.90;97.20;;;;;;1734728;28;20235;-70
2022/05/14 07:23:57;;;;;;;3.37;1.67;;;18.00;97.20;;;;;;1734710;28;20199;-69
2022/05/14 07:24:49;;;;;;;3.05;1.30;;;18.00;97.20;;;;;;1734647;28;20453;-69
2022/05/14 07:25:40;;;;;;;1.98;1.30;;;18.00;97.20;;;;;;1734668;28;20570;-70
2022/05/14 07:26:31;;;;;;;1.63;1.20;;;18.00;97.20;;;;;;1732526;28;20658;-69
2022/05/14 07:27:22;;;;;;;2.38;1.42;;;18.00;97.20;;;;;;1729728;28;20211;-70
2022/05/14 07:28:14;;;;;;;2.43;1.20;;;18.10;97.20;;;;;;1733715;28;20214;-69
2022/05/14 07:29:07;;;;;;;3.38;1.38;;;18.10;97.20;;;;;;1727662;28;20989;-69
2022/05/14 07:29:58;;;;;;;2.05;1.20;;;18.10;97.20;;;;;;1734382;28;20283;-69
2022/05/14 07:30:49;;;;;;;1.85;1.00;;;18.10;97.20;;;;;;1729020;28;20235;-70
2022/05/14 07:31:41;;;;;;;2.87;1.00;;;18.20;97.20;;;;;;1727820;28;20203;-69
2022/05/14 07:32:33;;;;;;;3.47;1.48;;;18.20;97.20;;;;;;1727645;28;20204;-70
2022/05/14 07:33:23;;;;;;;3.00;1.27;;;18.30;97.20;;;;;;1732060;28;20191;-70
2022/05/14 07:34:16;;;;;;;2.57;1.13;;;18.30;97.20;;;;;;1734500;28;20200;-70
2022/05/14 07:35:09;;;;;;;1.85;1.00;;;18.30;97.20;;;;;;1734519;28;20254;-70
2022/05/14 07:36:05;;;;;;;1.63;0.98;;;18.40;97.20;;;;;;1734515;28;20215;-70
2022/05/14 07:37:00;;;;;;;2.97;1.02;;;18.40;97.20;;;;;;1734212;28;20884;-70
2022/05/14 07:37:54;;;;;;;2.50;1.10;;;18.40;97.20;;;;;;1734584;28;20207;-70
2022/05/14 07:38:46;;;;;;;2.45;1.02;;;18.50;97.20;;;;;;1734557;28;20208;-69
2022/05/14 07:39:41;;;;;;;2.92;1.38;;;18.50;97.20;;;;;;1734534;28;20195;-73
2022/05/14 07:40:33;;;;;;;1.92;1.23;;;18.50;97.20;;;;;;1734558;28;20224;-71
2022/05/14 07:41:25;;;;;;;2.05;1.02;;;18.50;97.20;;;;;;1734473;28;20806;-70
2022/05/14 07:42:24;;;;;;;3.35;1.50;;;18.60;97.20;;;;;;1734389;28;20224;-70
2022/05/14 07:43:20;;;;;;;2.25;1.30;;;18.60;97.20;;;;;;1734498;28;20199;-71
2022/05/14 07:44:15;;;;;;;3.00;1.40;;;18.70;97.20;;;;;;1734500;28;20204;-71
2022/05/14 07:45:09;;;;;;;1.52;0.95;;;18.70;97.20;;;;;;1728397;28;20203;-70
2022/05/14 07:46:04;;;;;;;1.55;1.10;;;18.70;97.20;;;;;;1727749;28;20236;-71
2022/05/14 07:46:55;;;;;;;2.25;0.98;;;18.80;97.20;;;;;;1727181;28;20663;-71
2022/05/14 07:47:47;;;;;;;2.15;1.00;;;18.80;97.20;;;;;;1732099;28;20290;-70
2022/05/14 07:48:40;;;;;;;1.30;0.90;;;18.80;97.20;;;;;;1734435;28;20592;-70
2022/05/14 07:49:31;;;;;;;3.30;1.15;;;18.90;97.20;;;;;;1734383;28;20233;-71
2022/05/14 07:50:24;;;;;;;5.37;1.50;;;18.90;97.20;;;;;;1734476;28;20203;-71
2022/05/14 07:51:16;;;;;;;4.18;1.10;;;18.90;97.20;;;;;;1734416;28;20343;-70
2022/05/14 07:52:08;;;;;;;5.32;1.15;;;19.00;97.20;;;;;;1734408;28;20628;-71
2022/05/14 07:52:59;;;;;;;1.65;0.90;;;19.10;97.20;;;;;;1734443;28;20207;-71
2022/05/14 07:53:51;;;;;;;3.07;1.10;;;19.10;97.20;;;;;;1734415;28;20195;-70
2022/05/14 07:54:42;;;;;;;1.35;1.20;;;19.20;97.20;;;;;;1734391;28;20523;-70
2022/05/14 07:55:34;;;;;;;2.10;1.10;;;19.20;97.20;;;;;;1734399;28;20207;-71
2022/05/14 07:56:25;;;;;;;2.40;1.45;;;19.20;97.20;;;;;;1734388;28;20199;-70
2022/05/14 07:57:18;;;;;;;3.00;1.00;;;19.30;97.20;;;;;;1734056;28;20207;-71
2022/05/14 07:58:10;;;;;;;2.00;1.08;;;19.30;97.20;;;;;;1734321;28;20200;-71
2022/05/14 07:59:03;;;;;;;4.15;1.20;;;19.40;97.20;;;;;;1734363;28;20202;-71
2022/05/14 07:59:53;;;;;;;1.98;1.50;;;19.40;97.20;;;;;;1734512;28;20234;-71
2022/05/14 08:00:45;;;;;;;9.80;1.70;;;19.40;97.20;;;;;;1734496;28;20191;-71
2022/05/14 08:01:36;;;;;;;2.35;1.20;;;19.40;97.20;;;;;;1734236;28;20223;-71
2022/05/14 08:02:31;;;;;;;3.03;1.07;;;19.50;97.20;;;;;;1734219;28;20226;-71
2022/05/14 08:03:24;;;;;;;2.00;0.98;;;19.40;97.20;;;;;;1734463;28;20200;-71
2022/05/14 08:04:15;;;;;;;3.15;1.42;;;19.50;97.20;;;;;;1734005;28;20202;-71
2022/05/14 08:05:08;;;;;;;4.35;1.42;;;19.50;97.20;;;;;;1734372;28;20242;-71
2022/05/14 08:06:01;;;;;;;3.25;1.02;;;19.50;97.20;;;;;;1734253;28;20242;-71
2022/05/14 08:06:52;;;;;;;2.30;1.00;;;19.50;97.20;;;;;;1733938;28;20952;-70
2022/05/14 08:07:44;;;;;;;4.50;1.40;;;19.50;97.20;;;;;;1734311;28;20709;-71
2022/05/14 08:08:34;;;;;;;5.20;1.15;;;19.60;97.20;;;;;;1734250;28;20521;-70
2022/05/14 08:09:26;;;;;;;3.03;0.97;;;19.60;97.20;;;;;;1734552;28;20198;-71
2022/05/14 08:10:17;;;;;;;1.77;1.05;;;19.70;97.20;;;;;;1734338;28;20211;-70
2022/05/14 08:11:09;;;;;;;2.85;0.85;;;19.80;97.20;;;;;;1734356;28;20287;-71
2022/05/14 08:12:00;;;;;;;2.20;1.20;;;19.80;97.20;;;;;;1734258;28;20616;-71
2022/05/14 08:12:54;;;;;;;2.33;0.97;;;19.90;97.20;;;;;;1734366;28;20565;-71
2022/05/14 08:13:45;;;;;;;1.67;1.20;;;19.90;97.20;;;;;;1734238;28;20444;-70
2022/05/14 08:14:39;;;;;;;2.45;1.48;;;20.00;97.20;;;;;;1734304;28;20192;-70
2022/05/14 08:15:30;;;;;;;1.63;0.90;;;20.00;97.20;;;;;;1734271;28;20204;-70
2022/05/14 08:16:22;;;;;;;1.52;1.00;;;20.00;97.20;;;;;;1733433;28;20219;-71
2022/05/14 08:17:13;;;;;;;3.00;1.20;;;20.00;97.20;;;;;;1752977;23;21557;-77
2022/05/14 08:18:05;;;;;;;4.33;1.17;;;20.00;97.20;;;;;;1726777;28;20242;-76
2022/05/14 08:18:57;;;;;;;2.20;1.30;;;20.10;97.20;;;;;;1727115;28;20604;-76
2022/05/14 08:19:48;;;;;;;2.72;1.10;;;20.10;97.20;;;;;;1727405;28;20236;-77
2022/05/14 08:20:40;;;;;;;1.63;1.07;;;20.10;97.20;;;;;;1727538;28;20203;-77
2022/05/14 08:25:01;;;;;;;2.72;1.33;;;20.20;97.20;;;;;;1726945;28;20535;-76
2022/05/14 08:25:53;;;;;;;1.87;1.27;;;20.30;97.20;;;;;;1727289;28;20283;-76
2022/05/14 08:26:47;;;;;;;1.33;1.05;;;20.30;97.20;;;;;;1725012;28;20282;-76
2022/05/14 08:27:45;;;;;;;3.17;1.85;;;20.30;97.20;;;;;;1724936;28;20271;-77
2022/05/14 08:28:36;;;;;;;3.80;1.50;;;20.30;97.20;;;;;;1727130;28;20537;-77
2022/05/14 08:29:28;;;;;;;4.00;1.70;;;20.30;97.20;;;;;;1727541;28;20222;-78
2022/05/14 08:30:20;;;;;;;2.55;0.90;;;20.40;97.20;;;;;;1728189;28;20196;-78
2022/05/14 08:31:12;;;;;;;2.70;1.17;;;20.50;97.20;;;;;;1728671;28;20212;-78
2022/05/14 08:32:04;;;;;;;3.63;1.38;;;20.50;97.20;;;;;;1725455;28;20212;-78
2022/05/14 08:32:56;;;;;;;4.10;1.30;;;20.50;97.20;;;;;;1727758;28;20853;-78
2022/05/14 08:33:47;;;;;;;2.47;1.30;;;20.50;97.20;;;;;;1727595;28;20200;-78
2022/05/14 08:34:39;;;;;;;2.92;1.45;;;20.60;97.20;;;;;;1725313;28;20660;-78
2022/05/14 08:35:30;;;;;;;4.15;1.42;;;20.60;97.20;;;;;;1727772;28;20201;-78
2022/05/14 08:36:22;;;;;;;3.30;1.10;;;20.60;97.20;;;;;;1728182;28;20647;-78
2022/05/14 08:37:14;;;;;;;4.55;1.30;;;20.70;97.20;;;;;;1728713;28;20251;-79
2022/05/14 08:38:07;;;;;;;1.83;1.00;;;20.70;97.20;;;;;;1727893;28;20203;-78
2022/05/14 08:38:58;;;;;;;1.92;1.00;;;20.80;97.20;;;;;;1728271;28;20201;-78
2022/05/14 08:39:50;;;;;;;3.08;1.67;;;20.80;97.20;;;;;;1728193;28;20584;-78
2022/05/14 08:40:42;;;;;;;1.65;0.90;;;20.90;97.20;;;;;;1728186;28;20231;-79
2022/05/14 08:41:38;;;;;;;3.30;1.20;;;20.90;97.20;;;;;;1728752;28;20197;-78
2022/05/14 08:42:32;;;;;;;11.07;1.65;;;20.90;97.20;;;;;;1733385;28;20228;-78
2022/05/14 08:43:30;;;;;;;3.47;1.38;;;21.00;97.20;;;;;;1725748;28;20197;-77
2022/05/14 08:44:24;;;;;;;2.25;1.40;;;21.00;97.20;;;;;;1727860;28;20279;-78
2022/05/14 08:45:20;;;;;;;2.45;1.05;;;21.10;97.20;;;;;;1727927;28;20224;-78
2022/05/14 08:46:15;;;;;;;3.63;1.50;;;21.10;97.20;;;;;;1727800;28;20201;-79
2022/05/14 08:47:22;;;;;;;4.70;1.20;;;21.20;97.20;;;;;;1727011;28;20211;-78
2022/05/14 08:48:20;;;;;;;3.03;1.48;;;21.20;97.20;;;;;;1726247;28;20208;-79
2022/05/14 08:49:17;;;;;;;2.13;1.20;;;21.20;97.20;;;;;;1726366;28;20643;-78
2022/05/14 08:50:10;;;;;;;3.05;1.60;;;21.20;97.20;;;;;;1725912;28;20200;-78
2022/05/14 08:51:03;;;;;;;3.20;1.50;;;21.30;97.20;;;;;;1727977;28;20569;-78
2022/05/14 08:51:56;;;;;;;2.55;1.55;;;21.30;97.20;;;;;;1727977;28;20644;-79
2022/05/14 08:52:48;;;;;;;1.85;1.10;;;21.30;97.20;;;;;;1728159;28;20196;-78
2022/05/14 08:53:42;;;;;;;3.75;1.50;;;21.30;97.20;;;;;;1727976;28;20196;-79
2022/05/14 08:54:33;;;;;;;3.00;1.60;;;21.40;97.20;;;;;;1727576;28;20259;-79
2022/05/14 08:55:24;;;;;;;3.07;1.27;;;21.40;97.20;;;;;;1727787;28;20192;-79
2022/05/14 08:56:38;;;;;;;3.60;1.42;;;21.30;97.20;;;;;;1727823;28;20197;-78
2022/05/14 08:57:42;;;;;;;3.53;1.50;;;21.30;97.20;;;;;;1725277;28;20244;-78
2022/05/14 08:58:40;;;;;;;1.65;1.15;;;21.40;97.20;;;;;;1726945;28;20211;-78
2022/05/14 08:59:47;;;;;;;3.92;1.30;;;21.40;97.20;;;;;;1726305;28;20188;-79
2022/05/14 09:00:38;;;;;;;1.80;1.10;;;21.50;97.20;;;;;;1727442;28;20201;-79
2022/05/14 09:01:32;;;;;;;4.37;1.47;;;21.50;97.20;;;;;;1727649;28;20207;-78
2022/05/14 09:02:25;;;;;;;2.45;1.05;;;21.60;97.20;;;;;;1725011;28;20262;-78
2022/05/14 09:03:23;;;;;;;1.98;1.20;;;21.70;97.20;;;;;;1727716;28;20208;-79
2022/05/14 09:04:17;;;;;;;4.03;1.55;;;21.70;97.20;;;;;;1727784;28;20200;-79
2022/05/14 09:05:11;;;;;;;3.17;1.50;;;21.80;97.20;;;;;;1727446;28;20196;-78
2022/05/14 09:06:02;;;;;;;3.35;1.33;;;21.90;97.20;;;;;;1727182;28;20204;-78
2022/05/14 09:06:54;;;;;;;3.80;1.60;;;22.00;97.20;;;;;;1728607;28;20207;-78
2022/05/14 09:07:45;;;;;;;4.72;1.35;;;22.00;97.20;;;;;;1727505;28;20447;-78
2022/05/14 09:08:38;;;;;;;2.60;1.40;;;22.10;97.20;;;;;;1727750;28;20200;-78
2022/05/14 09:09:29;;;;;;;2.60;1.40;;;22.20;97.20;;;;;;1727627;28;20235;-78
2022/05/14 09:10:24;;;;;;;5.40;2.30;;;22.20;97.20;;;;;;1728412;28;20210;-78
2022/05/14 09:11:22;;;;;;;4.63;1.40;;;22.20;97.20;;;;;;1727926;28;21033;-78
2022/05/14 09:12:18;;;;;;;3.95;1.45;;;22.20;97.20;;;;;;1727803;28;20200;-77
2022/05/14 09:13:14;;;;;;;5.75;1.48;;;22.30;97.20;;;;;;1725614;28;20188;-78
2022/05/14 09:14:17;;;;;;;3.42;1.48;;;22.40;97.20;;;;;;1721580;28;20205;-79
2022/05/14 09:15:14;;;;;;;2.83;1.58;;;22.50;97.20;;;;;;1724957;28;20228;-78
2022/05/14 09:16:04;;;;;;;3.50;2.05;;;22.60;97.20;;;;;;1728034;28;20207;-78
2022/05/14 09:17:05;;;;;;;3.10;1.50;;;22.60;97.20;;;;;;1728642;28;20204;-79
2022/05/14 09:18:05;;;;;;;1.90;1.30;;;22.70;97.20;;;;;;1732566;28;20938;-78
2022/05/14 09:18:57;;;;;;;10.88;1.73;;;22.80;97.20;;;;;;1729694;28;20200;-79
2022/05/14 09:19:50;;;;;;;2.88;1.70;;;22.80;97.20;;;;;;1728964;28;20212;-78
2022/05/14 09:20:48;;;;;;;1.73;1.30;;;22.80;97.20;;;;;;1729301;28;20192;-78
2022/05/14 09:21:49;;;;;;;1.55;1.30;;;22.80;97.20;;;;;;1729174;28;20711;-77
2022/05/14 09:22:45;;;;;;;2.95;1.60;;;22.90;97.20;;;;;;1729220;28;20203;-78
2022/05/14 09:23:44;;;;;;;5.75;1.80;;;22.90;97.20;;;;;;1728957;28;20201;-79
2022/05/14 09:24:43;;;;;;;4.10;1.38;;;22.90;97.20;;;;;;1729016;28;20224;-78
2022/05/14 09:25:38;;;;;;;2.50;1.60;;;22.90;97.20;;;;;;1729107;28;20203;-78
2022/05/14 09:26:35;;;;;;;2.53;1.48;;;22.90;97.20;;;;;;1728825;28;20201;-78
2022/05/14 09:27:32;;;;;;;2.10;1.13;;;23.00;97.20;;;;;;1733504;28;20216;-78
2022/05/14 09:28:31;;;;;;;3.95;1.40;;;23.00;97.20;;;;;;1735901;28;20616;-78
2022/05/14 09:29:26;;;;;;;3.00;1.52;;;23.10;97.20;;;;;;1735941;28;20283;-78
2022/05/14 09:30:26;;;;;;;1.98;1.40;;;23.20;97.20;;;;;;1735900;28;20310;-79
2022/05/14 09:31:25;;;;;;;3.13;1.65;;;23.30;97.20;;;;;;1735573;28;20218;-78
2022/05/14 09:32:33;;;;;;;4.38;1.63;;;23.40;97.20;;;;;;1736495;28;20229;-78
2022/05/14 09:33:27;;;;;;;2.45;1.77;;;23.50;97.20;;;;;;1736342;28;20208;-79
2022/05/14 09:34:20;;;;;;;2.20;1.52;;;23.60;97.20;;;;;;1736776;28;20196;-78
2022/05/14 09:35:15;;;;;;;5.25;1.60;;;23.80;97.20;;;;;;1736859;28;20236;-78
2022/05/14 09:36:13;;;;;;;2.80;1.50;;;23.80;97.20;;;;;;1737014;28;20202;-78
2022/05/14 09:37:09;;;;;;;2.67;1.70;;;23.90;97.20;;;;;;1733839;28;20215;-79
2022/05/14 09:38:10;;;;;;;2.85;1.52;;;24.00;97.20;;;;;;1730348;28;20197;-79
2022/05/14 09:39:06;;;;;;;2.70;1.58;;;24.10;97.20;;;;;;1730741;28;20217;-77
2022/05/14 09:39:58;;;;;;;3.08;1.75;;;24.20;97.20;;;;;;1737351;28;20185;-77
2022/05/14 09:40:50;;;;;;;6.10;1.48;;;24.30;97.20;;;;;;1732187;28;20247;-78
2022/05/14 09:41:44;;;;;;;1.95;1.73;;;24.30;97.20;;;;;;1729761;28;20211;-79
2022/05/14 09:42:40;;;;;;;2.53;1.65;;;24.30;97.20;;;;;;1730482;28;20239;-78
2022/05/14 09:43:36;;;;;;;2.20;1.40;;;24.30;97.20;;;;;;1730418;28;20205;-78
2022/05/14 09:44:30;;;;;;;4.50;1.77;;;24.30;97.20;;;;;;1730067;28;20211;-79
2022/05/14 09:45:34;;;;;;;2.75;1.60;;;24.20;97.20;;;;;;1730707;28;20235;-79
2022/05/14 09:46:27;;;;;;;3.10;1.80;;;24.10;97.20;;;;;;1731061;28;20211;-79
2022/05/14 09:47:27;;;;;;;4.28;2.15;;;24.00;97.20;;;;;;1734291;28;20215;-78